sensor_id;sensor_type;location;lat;lon;timestamp;P1;durP1;ratioP1;P2;durP2;ratioP2
14738;SDS011;7461;52.440;13.540;2022-12-05T00:00:21;125.85;;;73.75;;
14738;SDS011;7461;52.440;13.540;2022-12-05T00:02:52;116.93;;;78.43;;
14738;SDS011;7461;52.440;13.540;2022-12-05T00:05:50;121.00;;;74.78;;
14738;SDS011;7461;52.440;13.540;2022-12-05T00:08:18;121.03;;;78.28;;
14738;SDS011;7461;52.440;13.540;2022-12-05T00:11:00;114.55;;;70.32;;
14738;SDS011;7461;52.440;13.540;2022-12-05T00:13:28;132.50;;;77.63;;
14738;SDS011;7461;52.440;13.540;2022-12-05T00:15:56;117.68;;;75.50;;
14738;SDS011;7461;52.440;13.540;2022-12-05T00:18:24;131.45;;;80.10;;
14738;SDS011;7461;52.440;13.540;2022-12-05T00:20:52;113.05;;;79.30;;
14738;SDS011;7461;52.440;13.540;2022-12-05T00:23:26;131.93;;;82.43;;
14738;SDS011;7461;52.440;13.540;2022-12-05T00:25:53;122.50;;;76.15;;
14738;SDS011;7461;52.440;13.540;2022-12-05T00:28:20;132.27;;;78.45;;
14738;SDS011;7461;52.440;13.540;2022-12-05T00:30:47;125.07;;;78.57;;
14738;SDS011;7461;52.440;13.540;2022-12-05T00:33:14;121.55;;;75.72;;
14738;SDS011;7461;52.440;13.540;2022-12-05T00:35:48;118.50;;;75.68;;
14738;SDS011;7461;52.440;13.540;2022-12-05T00:38:18;123.55;;;78.18;;
14738;SDS011;7461;52.440;13.540;2022-12-05T00:40:48;125.22;;;79.13;;
14738;SDS011;7461;52.440;13.540;2022-12-05T00:43:15;122.80;;;82.13;;
14738;SDS011;7461;52.440;13.540;2022-12-05T00:45:42;122.95;;;73.55;;
14738;SDS011;7461;52.440;13.540;2022-12-05T00:48:09;113.22;;;71.30;;
14738;SDS011;7461;52.440;13.540;2022-12-05T00:50:36;146.02;;;78.32;;
14738;SDS011;7461;52.440;13.540;2022-12-05T00:53:03;120.60;;;78.38;;
14738;SDS011;7461;52.440;13.540;2022-12-05T00:55:44;142.75;;;81.65;;
14738;SDS011;7461;52.440;13.540;2022-12-05T00:58:17;134.23;;;81.30;;
14738;SDS011;7461;52.440;13.540;2022-12-05T01:00:44;118.45;;;75.85;;
14738;SDS011;7461;52.440;13.540;2022-12-05T01:03:17;119.75;;;79.30;;
14738;SDS011;7461;52.440;13.540;2022-12-05T01:05:44;123.50;;;81.57;;
14738;SDS011;7461;52.440;13.540;2022-12-05T01:08:12;128.98;;;75.90;;
14738;SDS011;7461;52.440;13.540;2022-12-05T01:10:40;138.98;;;77.38;;
14738;SDS011;7461;52.440;13.540;2022-12-05T01:13:22;123.13;;;73.57;;
14738;SDS011;7461;52.440;13.540;2022-12-05T01:15:53;116.20;;;76.28;;
14738;SDS011;7461;52.440;13.540;2022-12-05T01:18:20;127.68;;;76.38;;
14738;SDS011;7461;52.440;13.540;2022-12-05T01:20:49;120.30;;;76.43;;
14738;SDS011;7461;52.440;13.540;2022-12-05T01:23:19;117.82;;;73.65;;
14738;SDS011;7461;52.440;13.540;2022-12-05T01:25:51;117.75;;;75.65;;
14738;SDS011;7461;52.440;13.540;2022-12-05T01:28:32;123.47;;;73.38;;
14738;SDS011;7461;52.440;13.540;2022-12-05T01:31:06;107.32;;;70.22;;
14738;SDS011;7461;52.440;13.540;2022-12-05T01:33:49;107.70;;;69.35;;
14738;SDS011;7461;52.440;13.540;2022-12-05T01:39:17;115.60;;;75.57;;
14738;SDS011;7461;52.440;13.540;2022-12-05T01:41:48;114.57;;;75.03;;
14738;SDS011;7461;52.440;13.540;2022-12-05T01:47:25;110.55;;;70.80;;
14738;SDS011;7461;52.440;13.540;2022-12-05T01:49:56;115.88;;;76.15;;
14738;SDS011;7461;52.440;13.540;2022-12-05T01:52:26;124.97;;;74.57;;
14738;SDS011;7461;52.440;13.540;2022-12-05T01:55:03;104.32;;;72.55;;
14738;SDS011;7461;52.440;13.540;2022-12-05T01:57:37;106.53;;;69.88;;
14738;SDS011;7461;52.440;13.540;2022-12-05T02:00:22;119.85;;;76.88;;
14738;SDS011;7461;52.440;13.540;2022-12-05T02:02:55;109.43;;;72.93;;
14738;SDS011;7461;52.440;13.540;2022-12-05T02:05:26;113.97;;;77.57;;
14738;SDS011;7461;52.440;13.540;2022-12-05T02:07:55;109.32;;;71.90;;
14738;SDS011;7461;52.440;13.540;2022-12-05T02:10:27;119.80;;;74.43;;
14738;SDS011;7461;52.440;13.540;2022-12-05T02:13:02;111.78;;;75.78;;
14738;SDS011;7461;52.440;13.540;2022-12-05T02:15:41;114.80;;;73.68;;
14738;SDS011;7461;52.440;13.540;2022-12-05T02:18:17;107.00;;;74.18;;
14738;SDS011;7461;52.440;13.540;2022-12-05T02:21:00;107.20;;;75.10;;
14738;SDS011;7461;52.440;13.540;2022-12-05T02:23:51;112.20;;;72.63;;
14738;SDS011;7461;52.440;13.540;2022-12-05T02:26:58;112.20;;;69.78;;
14738;SDS011;7461;52.440;13.540;2022-12-05T02:29:44;115.25;;;71.43;;
14738;SDS011;7461;52.440;13.540;2022-12-05T02:32:35;100.90;;;63.38;;
14738;SDS011;7461;52.440;13.540;2022-12-05T02:35:16;123.18;;;68.35;;
14738;SDS011;7461;52.440;13.540;2022-12-05T02:37:58;98.28;;;65.05;;
14738;SDS011;7461;52.440;13.540;2022-12-05T02:40:36;121.72;;;70.82;;
14738;SDS011;7461;52.440;13.540;2022-12-05T02:43:10;111.75;;;68.72;;
14738;SDS011;7461;52.440;13.540;2022-12-05T02:45:57;90.63;;;67.15;;
14738;SDS011;7461;52.440;13.540;2022-12-05T02:48:45;112.63;;;69.97;;
14738;SDS011;7461;52.440;13.540;2022-12-05T02:51:18;107.50;;;70.47;;
14738;SDS011;7461;52.440;13.540;2022-12-05T02:53:50;97.15;;;65.03;;
14738;SDS011;7461;52.440;13.540;2022-12-05T02:56:24;84.68;;;63.67;;
14738;SDS011;7461;52.440;13.540;2022-12-05T02:58:54;99.50;;;64.25;;
14738;SDS011;7461;52.440;13.540;2022-12-05T03:01:29;107.82;;;67.53;;
14738;SDS011;7461;52.440;13.540;2022-12-05T03:03:58;103.28;;;67.43;;
14738;SDS011;7461;52.440;13.540;2022-12-05T03:06:28;100.13;;;65.63;;
14738;SDS011;7461;52.440;13.540;2022-12-05T03:09:02;105.03;;;66.63;;
14738;SDS011;7461;52.440;13.540;2022-12-05T03:11:43;92.10;;;63.90;;
14738;SDS011;7461;52.440;13.540;2022-12-05T03:14:14;91.97;;;62.85;;
14738;SDS011;7461;52.440;13.540;2022-12-05T03:16:48;86.30;;;64.50;;
14738;SDS011;7461;52.440;13.540;2022-12-05T03:19:17;85.05;;;59.33;;
14738;SDS011;7461;52.440;13.540;2022-12-05T03:21:50;102.10;;;64.22;;
14738;SDS011;7461;52.440;13.540;2022-12-05T03:24:21;92.72;;;62.38;;
14738;SDS011;7461;52.440;13.540;2022-12-05T03:26:49;89.85;;;61.50;;
14738;SDS011;7461;52.440;13.540;2022-12-05T03:29:24;87.60;;;62.00;;
14738;SDS011;7461;52.440;13.540;2022-12-05T03:31:59;96.05;;;63.70;;
14738;SDS011;7461;52.440;13.540;2022-12-05T03:34:39;82.10;;;60.25;;
14738;SDS011;7461;52.440;13.540;2022-12-05T03:37:12;92.18;;;62.78;;
14738;SDS011;7461;52.440;13.540;2022-12-05T03:39:46;87.65;;;60.00;;
14738;SDS011;7461;52.440;13.540;2022-12-05T03:42:18;91.10;;;61.00;;
14738;SDS011;7461;52.440;13.540;2022-12-05T03:44:53;93.18;;;62.40;;
14738;SDS011;7461;52.440;13.540;2022-12-05T03:47:26;88.35;;;62.30;;
14738;SDS011;7461;52.440;13.540;2022-12-05T03:50:00;89.38;;;61.53;;
14738;SDS011;7461;52.440;13.540;2022-12-05T03:52:33;88.25;;;61.30;;
14738;SDS011;7461;52.440;13.540;2022-12-05T03:55:05;81.80;;;55.65;;
14738;SDS011;7461;52.440;13.540;2022-12-05T03:57:39;88.38;;;59.78;;
14738;SDS011;7461;52.440;13.540;2022-12-05T04:00:09;97.03;;;63.35;;
14738;SDS011;7461;52.440;13.540;2022-12-05T04:02:43;91.65;;;61.25;;
14738;SDS011;7461;52.440;13.540;2022-12-05T04:05:17;95.78;;;63.28;;
14738;SDS011;7461;52.440;13.540;2022-12-05T04:07:48;88.82;;;62.17;;
14738;SDS011;7461;52.440;13.540;2022-12-05T04:10:20;79.82;;;58.95;;
14738;SDS011;7461;52.440;13.540;2022-12-05T04:12:51;84.68;;;59.13;;
14738;SDS011;7461;52.440;13.540;2022-12-05T04:15:25;94.68;;;60.38;;
14738;SDS011;7461;52.440;13.540;2022-12-05T04:18:17;86.32;;;55.50;;
14738;SDS011;7461;52.440;13.540;2022-12-05T04:20:47;80.35;;;59.05;;
14738;SDS011;7461;52.440;13.540;2022-12-05T04:23:33;87.88;;;62.25;;
14738;SDS011;7461;52.440;13.540;2022-12-05T04:26:01;66.78;;;54.90;;
14738;SDS011;7461;52.440;13.540;2022-12-05T04:28:36;78.60;;;60.38;;
14738;SDS011;7461;52.440;13.540;2022-12-05T04:31:10;89.80;;;57.10;;
14738;SDS011;7461;52.440;13.540;2022-12-05T04:33:43;84.35;;;55.60;;
14738;SDS011;7461;52.440;13.540;2022-12-05T04:36:18;81.15;;;55.78;;
14738;SDS011;7461;52.440;13.540;2022-12-05T04:38:48;76.07;;;54.53;;
14738;SDS011;7461;52.440;13.540;2022-12-05T04:41:20;82.32;;;55.17;;
14738;SDS011;7461;52.440;13.540;2022-12-05T04:43:51;80.85;;;52.72;;
14738;SDS011;7461;52.440;13.540;2022-12-05T04:46:21;78.50;;;55.08;;
14738;SDS011;7461;52.440;13.540;2022-12-05T04:48:53;73.60;;;57.72;;
14738;SDS011;7461;52.440;13.540;2022-12-05T04:51:22;69.13;;;53.30;;
14738;SDS011;7461;52.440;13.540;2022-12-05T04:53:53;74.82;;;53.97;;
14738;SDS011;7461;52.440;13.540;2022-12-05T04:56:23;66.38;;;52.42;;
14738;SDS011;7461;52.440;13.540;2022-12-05T04:58:54;75.07;;;50.50;;
14738;SDS011;7461;52.440;13.540;2022-12-05T05:01:22;65.43;;;50.92;;
14738;SDS011;7461;52.440;13.540;2022-12-05T05:03:55;68.38;;;51.50;;
14738;SDS011;7461;52.440;13.540;2022-12-05T05:06:24;73.10;;;51.35;;
14738;SDS011;7461;52.440;13.540;2022-12-05T05:08:53;59.83;;;50.50;;
14738;SDS011;7461;52.440;13.540;2022-12-05T05:11:22;63.00;;;48.22;;
14738;SDS011;7461;52.440;13.540;2022-12-05T05:13:50;60.67;;;49.80;;
14738;SDS011;7461;52.440;13.540;2022-12-05T05:16:18;64.78;;;50.03;;
14738;SDS011;7461;52.440;13.540;2022-12-05T05:18:47;56.35;;;47.63;;
14738;SDS011;7461;52.440;13.540;2022-12-05T05:21:17;61.15;;;47.78;;
14738;SDS011;7461;52.440;13.540;2022-12-05T05:23:46;59.83;;;48.13;;
14738;SDS011;7461;52.440;13.540;2022-12-05T05:26:13;61.60;;;48.85;;
14738;SDS011;7461;52.440;13.540;2022-12-05T05:28:41;64.50;;;45.70;;
14738;SDS011;7461;52.440;13.540;2022-12-05T05:31:08;58.13;;;46.33;;
14738;SDS011;7461;52.440;13.540;2022-12-05T05:33:35;63.75;;;47.45;;
14738;SDS011;7461;52.440;13.540;2022-12-05T05:36:03;53.28;;;42.08;;
14738;SDS011;7461;52.440;13.540;2022-12-05T05:38:35;58.33;;;44.53;;
14738;SDS011;7461;52.440;13.540;2022-12-05T05:41:02;58.10;;;44.33;;
14738;SDS011;7461;52.440;13.540;2022-12-05T05:43:29;48.33;;;40.25;;
14738;SDS011;7461;52.440;13.540;2022-12-05T05:45:57;49.47;;;40.72;;
14738;SDS011;7461;52.440;13.540;2022-12-05T05:48:24;48.00;;;40.95;;
14738;SDS011;7461;52.440;13.540;2022-12-05T05:50:51;47.90;;;41.92;;
14738;SDS011;7461;52.440;13.540;2022-12-05T05:53:18;50.33;;;41.92;;
14738;SDS011;7461;52.440;13.540;2022-12-05T05:55:46;43.25;;;36.72;;
14738;SDS011;7461;52.440;13.540;2022-12-05T05:58:13;45.80;;;40.85;;
14738;SDS011;7461;52.440;13.540;2022-12-05T06:00:40;44.70;;;40.17;;
14738;SDS011;7461;52.440;13.540;2022-12-05T06:03:07;47.08;;;40.75;;
14738;SDS011;7461;52.440;13.540;2022-12-05T06:05:34;42.28;;;37.88;;
14738;SDS011;7461;52.440;13.540;2022-12-05T06:08:02;44.55;;;36.55;;
14738;SDS011;7461;52.440;13.540;2022-12-05T06:10:29;47.88;;;38.30;;
14738;SDS011;7461;52.440;13.540;2022-12-05T06:12:58;44.22;;;35.58;;
14738;SDS011;7461;52.440;13.540;2022-12-05T06:15:25;40.65;;;36.17;;
14738;SDS011;7461;52.440;13.540;2022-12-05T06:17:52;39.08;;;34.83;;
14738;SDS011;7461;52.440;13.540;2022-12-05T06:20:19;42.03;;;37.25;;
14738;SDS011;7461;52.440;13.540;2022-12-05T06:22:46;44.80;;;37.63;;
14738;SDS011;7461;52.440;13.540;2022-12-05T06:25:13;44.90;;;36.00;;
14738;SDS011;7461;52.440;13.540;2022-12-05T06:27:40;38.83;;;34.25;;
14738;SDS011;7461;52.440;13.540;2022-12-05T06:30:09;43.33;;;37.55;;
14738;SDS011;7461;52.440;13.540;2022-12-05T06:32:36;41.13;;;36.65;;
14738;SDS011;7461;52.440;13.540;2022-12-05T06:35:03;36.60;;;33.00;;
14738;SDS011;7461;52.440;13.540;2022-12-05T06:37:39;44.03;;;38.22;;
14738;SDS011;7461;52.440;13.540;2022-12-05T06:40:06;42.05;;;37.08;;
14738;SDS011;7461;52.440;13.540;2022-12-05T06:42:34;40.10;;;34.75;;
14738;SDS011;7461;52.440;13.540;2022-12-05T06:45:01;44.17;;;37.83;;
14738;SDS011;7461;52.440;13.540;2022-12-05T06:47:29;39.53;;;35.33;;
14738;SDS011;7461;52.440;13.540;2022-12-05T06:49:56;42.13;;;37.67;;
14738;SDS011;7461;52.440;13.540;2022-12-05T06:52:23;38.50;;;34.58;;
14738;SDS011;7461;52.440;13.540;2022-12-05T06:54:50;38.78;;;34.55;;
14738;SDS011;7461;52.440;13.540;2022-12-05T06:57:17;39.03;;;33.47;;
14738;SDS011;7461;52.440;13.540;2022-12-05T06:59:44;41.20;;;36.75;;
14738;SDS011;7461;52.440;13.540;2022-12-05T07:02:11;42.55;;;35.28;;
14738;SDS011;7461;52.440;13.540;2022-12-05T07:04:39;39.97;;;33.60;;
14738;SDS011;7461;52.440;13.540;2022-12-05T07:07:06;45.42;;;35.08;;
14738;SDS011;7461;52.440;13.540;2022-12-05T07:09:33;40.90;;;34.65;;
14738;SDS011;7461;52.440;13.540;2022-12-05T07:12:12;40.30;;;36.08;;
14738;SDS011;7461;52.440;13.540;2022-12-05T07:14:40;43.42;;;38.70;;
14738;SDS011;7461;52.440;13.540;2022-12-05T07:17:08;51.13;;;44.80;;
14738;SDS011;7461;52.440;13.540;2022-12-05T07:19:35;51.45;;;44.08;;
14738;SDS011;7461;52.440;13.540;2022-12-05T07:22:03;40.20;;;35.95;;
14738;SDS011;7461;52.440;13.540;2022-12-05T07:24:31;42.85;;;38.28;;
14738;SDS011;7461;52.440;13.540;2022-12-05T07:26:58;41.88;;;37.22;;
14738;SDS011;7461;52.440;13.540;2022-12-05T07:29:25;41.20;;;36.85;;
14738;SDS011;7461;52.440;13.540;2022-12-05T07:31:52;44.88;;;38.28;;
14738;SDS011;7461;52.440;13.540;2022-12-05T07:34:19;41.15;;;36.92;;
14738;SDS011;7461;52.440;13.540;2022-12-05T07:36:46;42.50;;;37.80;;
14738;SDS011;7461;52.440;13.540;2022-12-05T07:39:14;40.55;;;36.53;;
14738;SDS011;7461;52.440;13.540;2022-12-05T07:41:41;41.70;;;36.78;;
14738;SDS011;7461;52.440;13.540;2022-12-05T07:44:08;40.75;;;36.63;;
14738;SDS011;7461;52.440;13.540;2022-12-05T07:46:37;44.30;;;35.35;;
14738;SDS011;7461;52.440;13.540;2022-12-05T07:49:05;38.75;;;34.63;;
14738;SDS011;7461;52.440;13.540;2022-12-05T07:51:33;41.22;;;36.63;;
14738;SDS011;7461;52.440;13.540;2022-12-05T07:54:00;39.83;;;35.95;;
14738;SDS011;7461;52.440;13.540;2022-12-05T07:56:28;40.05;;;34.45;;
14738;SDS011;7461;52.440;13.540;2022-12-05T07:58:55;39.55;;;35.47;;
14738;SDS011;7461;52.440;13.540;2022-12-05T08:01:23;39.85;;;35.72;;
14738;SDS011;7461;52.440;13.540;2022-12-05T08:03:52;41.03;;;36.35;;
14738;SDS011;7461;52.440;13.540;2022-12-05T08:06:21;39.25;;;34.72;;
14738;SDS011;7461;52.440;13.540;2022-12-05T08:08:50;41.53;;;36.85;;
14738;SDS011;7461;52.440;13.540;2022-12-05T08:11:18;40.28;;;35.50;;
14738;SDS011;7461;52.440;13.540;2022-12-05T08:13:48;41.67;;;34.85;;
14738;SDS011;7461;52.440;13.540;2022-12-05T08:16:16;40.33;;;35.08;;
14738;SDS011;7461;52.440;13.540;2022-12-05T08:18:44;46.40;;;37.25;;
14738;SDS011;7461;52.440;13.540;2022-12-05T08:21:12;40.25;;;34.83;;
14738;SDS011;7461;52.440;13.540;2022-12-05T08:23:41;43.38;;;36.97;;
14738;SDS011;7461;52.440;13.540;2022-12-05T08:26:09;37.28;;;33.33;;
14738;SDS011;7461;52.440;13.540;2022-12-05T08:28:38;38.70;;;34.60;;
14738;SDS011;7461;52.440;13.540;2022-12-05T08:31:07;40.90;;;33.50;;
14738;SDS011;7461;52.440;13.540;2022-12-05T08:33:35;37.42;;;32.22;;
14738;SDS011;7461;52.440;13.540;2022-12-05T08:36:04;39.22;;;34.80;;
14738;SDS011;7461;52.440;13.540;2022-12-05T08:38:32;38.38;;;31.98;;
14738;SDS011;7461;52.440;13.540;2022-12-05T08:40:59;38.28;;;32.53;;
14738;SDS011;7461;52.440;13.540;2022-12-05T08:43:27;40.28;;;33.88;;
14738;SDS011;7461;52.440;13.540;2022-12-05T08:45:54;36.88;;;32.05;;
14738;SDS011;7461;52.440;13.540;2022-12-05T08:48:23;35.45;;;29.55;;
14738;SDS011;7461;52.440;13.540;2022-12-05T08:50:50;36.45;;;32.65;;
14738;SDS011;7461;52.440;13.540;2022-12-05T08:53:17;31.77;;;28.45;;
14738;SDS011;7461;52.440;13.540;2022-12-05T08:55:44;35.30;;;31.83;;
14738;SDS011;7461;52.440;13.540;2022-12-05T08:58:12;30.25;;;27.20;;
14738;SDS011;7461;52.440;13.540;2022-12-05T09:00:39;32.10;;;28.88;;
14738;SDS011;7461;52.440;13.540;2022-12-05T09:03:07;31.67;;;28.65;;
14738;SDS011;7461;52.440;13.540;2022-12-05T09:05:37;36.05;;;29.23;;
14738;SDS011;7461;52.440;13.540;2022-12-05T09:08:04;33.03;;;29.00;;
14738;SDS011;7461;52.440;13.540;2022-12-05T09:10:31;31.73;;;28.33;;
14738;SDS011;7461;52.440;13.540;2022-12-05T09:12:58;33.92;;;27.42;;
14738;SDS011;7461;52.440;13.540;2022-12-05T09:15:25;30.45;;;27.17;;
14738;SDS011;7461;52.440;13.540;2022-12-05T09:17:52;35.95;;;30.23;;
14738;SDS011;7461;52.440;13.540;2022-12-05T09:20:19;30.65;;;26.60;;
14738;SDS011;7461;52.440;13.540;2022-12-05T09:22:47;32.55;;;29.23;;
14738;SDS011;7461;52.440;13.540;2022-12-05T09:25:14;31.70;;;28.40;;
14738;SDS011;7461;52.440;13.540;2022-12-05T09:27:41;30.05;;;26.88;;
14738;SDS011;7461;52.440;13.540;2022-12-05T09:30:08;31.33;;;28.20;;
14738;SDS011;7461;52.440;13.540;2022-12-05T09:32:35;33.92;;;30.33;;
14738;SDS011;7461;52.440;13.540;2022-12-05T09:35:03;31.60;;;28.48;;
14738;SDS011;7461;52.440;13.540;2022-12-05T09:37:30;31.33;;;28.02;;
14738;SDS011;7461;52.440;13.540;2022-12-05T09:39:58;34.25;;;30.55;;
14738;SDS011;7461;52.440;13.540;2022-12-05T09:42:30;34.50;;;30.67;;
14738;SDS011;7461;52.440;13.540;2022-12-05T09:45:21;35.40;;;30.60;;
14738;SDS011;7461;52.440;13.540;2022-12-05T09:47:55;31.73;;;28.35;;
14738;SDS011;7461;52.440;13.540;2022-12-05T09:50:26;35.55;;;31.88;;
14738;SDS011;7461;52.440;13.540;2022-12-05T09:52:59;36.40;;;32.70;;
14738;SDS011;7461;52.440;13.540;2022-12-05T09:55:34;37.17;;;30.92;;
14738;SDS011;7461;52.440;13.540;2022-12-05T09:58:08;33.72;;;30.20;;
14738;SDS011;7461;52.440;13.540;2022-12-05T10:00:51;39.08;;;33.65;;
14738;SDS011;7461;52.440;13.540;2022-12-05T10:03:25;35.58;;;29.52;;
14738;SDS011;7461;52.440;13.540;2022-12-05T10:06:00;35.15;;;31.48;;
14738;SDS011;7461;52.440;13.540;2022-12-05T10:08:37;32.75;;;29.48;;
14738;SDS011;7461;52.440;13.540;2022-12-05T10:11:11;35.85;;;31.83;;
14738;SDS011;7461;52.440;13.540;2022-12-05T10:13:44;30.60;;;27.40;;
14738;SDS011;7461;52.440;13.540;2022-12-05T10:16:19;33.42;;;29.55;;
14738;SDS011;7461;52.440;13.540;2022-12-05T10:18:54;34.13;;;30.58;;
14738;SDS011;7461;52.440;13.540;2022-12-05T10:21:27;34.55;;;30.90;;
14738;SDS011;7461;52.440;13.540;2022-12-05T10:23:58;33.70;;;30.30;;
14738;SDS011;7461;52.440;13.540;2022-12-05T10:26:29;33.60;;;30.05;;
14738;SDS011;7461;52.440;13.540;2022-12-05T10:29:01;35.55;;;31.27;;
14738;SDS011;7461;52.440;13.540;2022-12-05T10:31:36;33.58;;;29.00;;
14738;SDS011;7461;52.440;13.540;2022-12-05T10:34:05;32.75;;;28.95;;
14738;SDS011;7461;52.440;13.540;2022-12-05T10:36:40;35.60;;;30.52;;
14738;SDS011;7461;52.440;13.540;2022-12-05T10:39:15;33.90;;;30.20;;
14738;SDS011;7461;52.440;13.540;2022-12-05T10:41:44;37.55;;;33.50;;
14738;SDS011;7461;52.440;13.540;2022-12-05T10:44:11;34.72;;;30.85;;
14738;SDS011;7461;52.440;13.540;2022-12-05T10:46:38;36.85;;;32.92;;
14738;SDS011;7461;52.440;13.540;2022-12-05T10:49:07;35.55;;;31.10;;
14738;SDS011;7461;52.440;13.540;2022-12-05T10:51:36;36.45;;;33.00;;
14738;SDS011;7461;52.440;13.540;2022-12-05T10:54:04;33.20;;;29.85;;
14738;SDS011;7461;52.440;13.540;2022-12-05T10:56:42;36.55;;;33.13;;
14738;SDS011;7461;52.440;13.540;2022-12-05T10:59:12;38.58;;;34.30;;
14738;SDS011;7461;52.440;13.540;2022-12-05T11:01:45;36.42;;;32.80;;
14738;SDS011;7461;52.440;13.540;2022-12-05T11:04:18;35.38;;;31.58;;
14738;SDS011;7461;52.440;13.540;2022-12-05T11:06:49;36.80;;;33.00;;
14738;SDS011;7461;52.440;13.540;2022-12-05T11:09:19;35.05;;;31.75;;
14738;SDS011;7461;52.440;13.540;2022-12-05T11:11:58;32.15;;;29.02;;
14738;SDS011;7461;52.440;13.540;2022-12-05T11:14:32;36.00;;;32.38;;
14738;SDS011;7461;52.440;13.540;2022-12-05T11:17:00;34.22;;;29.90;;
14738;SDS011;7461;52.440;13.540;2022-12-05T11:19:29;38.13;;;34.10;;
14738;SDS011;7461;52.440;13.540;2022-12-05T11:21:58;39.92;;;35.72;;
14738;SDS011;7461;52.440;13.540;2022-12-05T11:24:26;37.72;;;33.67;;
14738;SDS011;7461;52.440;13.540;2022-12-05T11:26:55;35.85;;;32.17;;
14738;SDS011;7461;52.440;13.540;2022-12-05T11:29:31;36.47;;;32.55;;
14738;SDS011;7461;52.440;13.540;2022-12-05T11:32:01;38.53;;;34.60;;
14738;SDS011;7461;52.440;13.540;2022-12-05T11:34:30;38.63;;;34.45;;
14738;SDS011;7461;52.440;13.540;2022-12-05T11:37:04;42.78;;;34.83;;
14738;SDS011;7461;52.440;13.540;2022-12-05T11:39:37;37.25;;;32.45;;
14738;SDS011;7461;52.440;13.540;2022-12-05T11:42:15;38.33;;;33.85;;
14738;SDS011;7461;52.440;13.540;2022-12-05T11:44:57;39.83;;;35.55;;
14738;SDS011;7461;52.440;13.540;2022-12-05T11:47:39;36.30;;;32.50;;
14738;SDS011;7461;52.440;13.540;2022-12-05T11:50:35;43.13;;;34.88;;
14738;SDS011;7461;52.440;13.540;2022-12-05T11:53:12;39.83;;;34.17;;
14738;SDS011;7461;52.440;13.540;2022-12-05T11:55:53;36.70;;;33.20;;
14738;SDS011;7461;52.440;13.540;2022-12-05T11:58:37;38.40;;;33.30;;
14738;SDS011;7461;52.440;13.540;2022-12-05T12:01:12;40.55;;;35.95;;
14738;SDS011;7461;52.440;13.540;2022-12-05T12:06:43;41.88;;;35.85;;
14738;SDS011;7461;52.440;13.540;2022-12-05T12:09:22;38.28;;;34.53;;
14738;SDS011;7461;52.440;13.540;2022-12-05T12:11:57;41.55;;;36.03;;
14738;SDS011;7461;52.440;13.540;2022-12-05T12:14:34;42.33;;;37.78;;
14738;SDS011;7461;52.440;13.540;2022-12-05T12:17:08;40.55;;;36.22;;
14738;SDS011;7461;52.440;13.540;2022-12-05T12:19:51;36.50;;;32.70;;
14738;SDS011;7461;52.440;13.540;2022-12-05T12:25:37;40.05;;;35.13;;
14738;SDS011;7461;52.440;13.540;2022-12-05T12:28:16;38.80;;;34.63;;
14738;SDS011;7461;52.440;13.540;2022-12-05T12:30:59;46.10;;;37.65;;
14738;SDS011;7461;52.440;13.540;2022-12-05T12:33:36;45.47;;;39.10;;
14738;SDS011;7461;52.440;13.540;2022-12-05T12:36:14;43.78;;;37.35;;
14738;SDS011;7461;52.440;13.540;2022-12-05T12:38:47;42.08;;;37.00;;
14738;SDS011;7461;52.440;13.540;2022-12-05T12:41:39;46.70;;;38.78;;
14738;SDS011;7461;52.440;13.540;2022-12-05T12:44:20;46.17;;;38.78;;
14738;SDS011;7461;52.440;13.540;2022-12-05T12:47:05;43.95;;;36.28;;
14738;SDS011;7461;52.440;13.540;2022-12-05T12:49:39;40.40;;;36.00;;
14738;SDS011;7461;52.440;13.540;2022-12-05T12:52:19;49.40;;;40.70;;
14738;SDS011;7461;52.440;13.540;2022-12-05T12:54:54;47.35;;;39.67;;
14738;SDS011;7461;52.440;13.540;2022-12-05T12:57:44;46.67;;;38.75;;
14738;SDS011;7461;52.440;13.540;2022-12-05T13:00:27;52.97;;;39.72;;
14738;SDS011;7461;52.440;13.540;2022-12-05T13:03:08;46.88;;;38.63;;
14738;SDS011;7461;52.440;13.540;2022-12-05T13:05:38;47.58;;;39.97;;
14738;SDS011;7461;52.440;13.540;2022-12-05T13:08:11;52.45;;;43.83;;
14738;SDS011;7461;52.440;13.540;2022-12-05T13:10:42;57.08;;;41.70;;
14738;SDS011;7461;52.440;13.540;2022-12-05T13:13:11;51.30;;;40.17;;
14738;SDS011;7461;52.440;13.540;2022-12-05T13:15:44;55.30;;;41.58;;
14738;SDS011;7461;52.440;13.540;2022-12-05T13:18:16;51.72;;;41.83;;
14738;SDS011;7461;52.440;13.540;2022-12-05T13:20:44;46.28;;;41.25;;
14738;SDS011;7461;52.440;13.540;2022-12-05T13:23:15;49.42;;;42.67;;
14738;SDS011;7461;52.440;13.540;2022-12-05T13:25:44;54.72;;;43.20;;
14738;SDS011;7461;52.440;13.540;2022-12-05T13:28:17;63.63;;;43.85;;
14738;SDS011;7461;52.440;13.540;2022-12-05T13:30:51;54.20;;;40.22;;
14738;SDS011;7461;52.440;13.540;2022-12-05T13:33:33;51.80;;;43.72;;
14738;SDS011;7461;52.440;13.540;2022-12-05T13:36:03;59.15;;;44.35;;
14738;SDS011;7461;52.440;13.540;2022-12-05T13:38:54;60.95;;;43.63;;
14738;SDS011;7461;52.440;13.540;2022-12-05T13:41:41;58.10;;;40.92;;
14738;SDS011;7461;52.440;13.540;2022-12-05T13:44:28;51.40;;;43.13;;
14738;SDS011;7461;52.440;13.540;2022-12-05T13:46:59;64.40;;;45.95;;
14738;SDS011;7461;52.440;13.540;2022-12-05T13:49:34;53.72;;;45.38;;
14738;SDS011;7461;52.440;13.540;2022-12-05T13:52:09;59.72;;;42.30;;
14738;SDS011;7461;52.440;13.540;2022-12-05T13:54:40;56.40;;;45.67;;
14738;SDS011;7461;52.440;13.540;2022-12-05T14:00:19;69.05;;;44.55;;
14738;SDS011;7461;52.440;13.540;2022-12-05T14:03:01;60.80;;;46.97;;
14738;SDS011;7461;52.440;13.540;2022-12-05T14:05:44;68.22;;;46.85;;
14738;SDS011;7461;52.440;13.540;2022-12-05T14:11:12;70.18;;;47.05;;
14738;SDS011;7461;52.440;13.540;2022-12-05T14:13:40;65.72;;;42.60;;
14738;SDS011;7461;52.440;13.540;2022-12-05T14:25:19;61.80;;;46.15;;
14738;SDS011;7461;52.440;13.540;2022-12-05T14:28:04;64.47;;;45.92;;
14738;SDS011;7461;52.440;13.540;2022-12-05T14:30:44;69.85;;;45.78;;
14738;SDS011;7461;52.440;13.540;2022-12-05T14:33:31;70.68;;;43.60;;
14738;SDS011;7461;52.440;13.540;2022-12-05T14:36:02;59.80;;;42.60;;
14738;SDS011;7461;52.440;13.540;2022-12-05T14:38:34;60.90;;;46.50;;
14738;SDS011;7461;52.440;13.540;2022-12-05T14:41:10;70.88;;;46.80;;
14738;SDS011;7461;52.440;13.540;2022-12-05T14:43:40;70.07;;;48.45;;
14738;SDS011;7461;52.440;13.540;2022-12-05T14:46:13;73.40;;;47.17;;
14738;SDS011;7461;52.440;13.540;2022-12-05T14:48:45;68.90;;;44.92;;
14738;SDS011;7461;52.440;13.540;2022-12-05T14:54:12;70.68;;;41.90;;
14738;SDS011;7461;52.440;13.540;2022-12-05T14:56:43;71.32;;;46.60;;
14738;SDS011;7461;52.440;13.540;2022-12-05T14:59:16;66.35;;;45.67;;
14738;SDS011;7461;52.440;13.540;2022-12-05T15:01:49;63.58;;;44.08;;
14738;SDS011;7461;52.440;13.540;2022-12-05T15:04:21;76.65;;;47.67;;
14738;SDS011;7461;52.440;13.540;2022-12-05T15:06:54;74.03;;;47.72;;
14738;SDS011;7461;52.440;13.540;2022-12-05T15:12:22;84.88;;;49.05;;
14738;SDS011;7461;52.440;13.540;2022-12-05T15:14:53;90.85;;;53.60;;
14738;SDS011;7461;52.440;13.540;2022-12-05T15:17:28;88.15;;;55.85;;
14738;SDS011;7461;52.440;13.540;2022-12-05T15:20:02;87.95;;;53.95;;